Tabriz International Airport
OITT : now visible

Airfield :











YOU CAN JOIN US ON...

 
LOGIN :

Register | Disclaimer

   EN    FR    IT 

 









Legend :    VFR   Marginal VFR   IFR   Intensive IFR   Very Intensive IFR
Visi :
Ceiling :
>= 8 km
>= 3000ft
5 to 8 km
1000 to 3000 ft
1500m to 5 km
500 to 1000 ft
800 to 1500m
200 to 500 ft
< 800m
< 200 ft
Symbols :   Thunderstorms  Fog  Heavy snow  Heavy precipitations  Wind > 20 kt






- Airport Elevation : 4459 ft
- IATA code : TBZ


OITT - Tabriz International

CURRENT METAR :
  • 301900Z VRB02KT 9999 FEW030 BKN090 05/03 Q1009 A2981 NOSIG

EXPIRED METARs :
  • 301830Z 01004KT 9999 FEW012 BKN090 05/03 Q1009 A2980
  • 301800Z VRB02KT 9999 FEW012 SCT090 04/03 Q1008 A2979 NOSIG
  • 301730Z VRB02KT 9999 FEW010 SCT090 04/02 Q1008 A2978
  • 301700Z VRB02KT 9999 FEW010 FEW040CB SCT090 05/02 Q1008 A2978 TEMPO SHRA

TAF TAF OITT
Valid from the 30 at 18:00 until the 01 at 00:00 UTC


301730Z 3018/3124 24010KT 6000 FEW010 SCT090
TEMPO 3018/3024 3000 SHRA BR BKN010 FEW030CB BKN080
TEMPO 3022/3103 0800 FG BKN015
BECMG 3105/3107 7000 FEW035 SCT100
TEMPO 3106/3115 24020G30KT FEW030CB SCT035 BKN090
BECMG 3116/3118 FEW035CB SCT040 BKN090
PROB30 3120/3124 3000 RA BR



MET'MAP, your aeronautical weather chart ! - Copyright ORBIFLY December 2007 - Disclaimer

ORBIFLY MET'MAP TEAM :

Programming & Development : Alexandra Zaïnal
Concept & original design : Baudouin d'Aumeries
Assistance for programming : Marc-Olivier Méhu
Technical & hardware support : Manuel Goepfert

Contact : metmap@orbifly.com




SOURCES & CREDITS :

   NOAA       Earth
Advisory